sensor_id;sensor_type;location;lat;lon;timestamp;P1;durP1;ratioP1;P2;durP2;ratioP2
62861;SDS011;48953;53.110;5.592;2023-12-04T00:01:24;98.03;;;38.15;;
62861;SDS011;48953;53.110;5.592;2023-12-04T00:03:51;99.68;;;37.97;;
62861;SDS011;48953;53.110;5.592;2023-12-04T00:06:18;102.50;;;38.40;;
62861;SDS011;48953;53.110;5.592;2023-12-04T00:08:44;105.88;;;37.13;;
62861;SDS011;48953;53.110;5.592;2023-12-04T00:11:10;99.22;;;36.67;;
62861;SDS011;48953;53.110;5.592;2023-12-04T00:13:36;92.28;;;35.20;;
62861;SDS011;48953;53.110;5.592;2023-12-04T00:16:02;88.72;;;35.50;;
62861;SDS011;48953;53.110;5.592;2023-12-04T00:18:28;94.65;;;34.55;;
62861;SDS011;48953;53.110;5.592;2023-12-04T00:20:55;92.53;;;35.38;;
62861;SDS011;48953;53.110;5.592;2023-12-04T00:23:21;95.15;;;35.53;;
62861;SDS011;48953;53.110;5.592;2023-12-04T00:25:47;85.72;;;33.80;;
62861;SDS011;48953;53.110;5.592;2023-12-04T00:28:13;88.88;;;35.00;;
62861;SDS011;48953;53.110;5.592;2023-12-04T00:30:39;87.07;;;34.97;;
62861;SDS011;48953;53.110;5.592;2023-12-04T00:33:05;78.60;;;33.20;;
62861;SDS011;48953;53.110;5.592;2023-12-04T00:35:31;86.43;;;34.17;;
62861;SDS011;48953;53.110;5.592;2023-12-04T00:37:57;88.65;;;35.67;;
62861;SDS011;48953;53.110;5.592;2023-12-04T00:40:23;91.05;;;34.67;;
62861;SDS011;48953;53.110;5.592;2023-12-04T00:42:49;89.90;;;34.63;;
62861;SDS011;48953;53.110;5.592;2023-12-04T00:45:15;89.13;;;36.03;;
62861;SDS011;48953;53.110;5.592;2023-12-04T00:47:41;81.68;;;35.05;;
62861;SDS011;48953;53.110;5.592;2023-12-04T00:50:07;90.53;;;34.50;;
62861;SDS011;48953;53.110;5.592;2023-12-04T00:52:33;82.50;;;34.83;;
62861;SDS011;48953;53.110;5.592;2023-12-04T00:54:59;93.53;;;37.00;;
62861;SDS011;48953;53.110;5.592;2023-12-04T00:57:25;85.80;;;35.40;;
62861;SDS011;48953;53.110;5.592;2023-12-04T00:59:51;91.68;;;35.38;;
62861;SDS011;48953;53.110;5.592;2023-12-04T01:02:17;90.60;;;35.97;;
62861;SDS011;48953;53.110;5.592;2023-12-04T01:04:43;87.45;;;35.80;;
62861;SDS011;48953;53.110;5.592;2023-12-04T01:07:09;82.40;;;34.13;;
62861;SDS011;48953;53.110;5.592;2023-12-04T01:09:35;96.80;;;37.22;;
62861;SDS011;48953;53.110;5.592;2023-12-04T01:12:01;83.35;;;35.10;;
62861;SDS011;48953;53.110;5.592;2023-12-04T01:14:28;90.97;;;36.17;;
62861;SDS011;48953;53.110;5.592;2023-12-04T01:16:54;88.53;;;35.50;;
62861;SDS011;48953;53.110;5.592;2023-12-04T01:19:20;86.88;;;34.50;;
62861;SDS011;48953;53.110;5.592;2023-12-04T01:21:46;89.00;;;36.97;;
62861;SDS011;48953;53.110;5.592;2023-12-04T01:24:13;83.00;;;35.70;;
62861;SDS011;48953;53.110;5.592;2023-12-04T01:26:39;84.18;;;35.22;;
62861;SDS011;48953;53.110;5.592;2023-12-04T01:29:05;89.18;;;37.72;;
62861;SDS011;48953;53.110;5.592;2023-12-04T01:31:31;91.93;;;37.22;;
62861;SDS011;48953;53.110;5.592;2023-12-04T01:33:57;102.40;;;39.83;;
62861;SDS011;48953;53.110;5.592;2023-12-04T01:36:23;98.80;;;38.08;;
62861;SDS011;48953;53.110;5.592;2023-12-04T01:38:49;97.38;;;36.10;;
62861;SDS011;48953;53.110;5.592;2023-12-04T01:41:15;101.32;;;39.35;;
62861;SDS011;48953;53.110;5.592;2023-12-04T01:43:41;99.97;;;38.33;;
62861;SDS011;48953;53.110;5.592;2023-12-04T01:46:07;91.63;;;38.30;;
62861;SDS011;48953;53.110;5.592;2023-12-04T01:48:34;95.28;;;36.78;;
62861;SDS011;48953;53.110;5.592;2023-12-04T01:51:03;89.65;;;37.58;;
62861;SDS011;48953;53.110;5.592;2023-12-04T01:53:31;98.47;;;39.13;;
62861;SDS011;48953;53.110;5.592;2023-12-04T01:55:57;96.72;;;37.17;;
62861;SDS011;48953;53.110;5.592;2023-12-04T01:58:24;102.13;;;39.55;;
62861;SDS011;48953;53.110;5.592;2023-12-04T02:00:50;97.70;;;38.25;;
62861;SDS011;48953;53.110;5.592;2023-12-04T02:03:16;101.85;;;38.45;;
62861;SDS011;48953;53.110;5.592;2023-12-04T02:05:45;97.82;;;38.83;;
62861;SDS011;48953;53.110;5.592;2023-12-04T02:08:11;89.65;;;38.60;;
62861;SDS011;48953;53.110;5.592;2023-12-04T02:10:38;93.50;;;37.83;;
62861;SDS011;48953;53.110;5.592;2023-12-04T02:13:04;98.72;;;38.17;;
62861;SDS011;48953;53.110;5.592;2023-12-04T02:15:30;90.13;;;37.33;;
62861;SDS011;48953;53.110;5.592;2023-12-04T02:17:56;86.32;;;36.25;;
62861;SDS011;48953;53.110;5.592;2023-12-04T02:20:30;98.75;;;37.85;;
62861;SDS011;48953;53.110;5.592;2023-12-04T02:22:57;89.88;;;37.53;;
62861;SDS011;48953;53.110;5.592;2023-12-04T02:25:23;98.45;;;38.25;;
62861;SDS011;48953;53.110;5.592;2023-12-04T02:27:49;91.57;;;36.67;;
62861;SDS011;48953;53.110;5.592;2023-12-04T02:30:17;92.90;;;37.50;;
62861;SDS011;48953;53.110;5.592;2023-12-04T02:32:47;99.07;;;38.75;;
62861;SDS011;48953;53.110;5.592;2023-12-04T02:35:16;86.07;;;35.73;;
62861;SDS011;48953;53.110;5.592;2023-12-04T02:37:44;102.47;;;38.85;;
62861;SDS011;48953;53.110;5.592;2023-12-04T02:40:10;97.25;;;38.95;;
62861;SDS011;48953;53.110;5.592;2023-12-04T02:42:36;102.47;;;40.05;;
62861;SDS011;48953;53.110;5.592;2023-12-04T02:45:02;97.10;;;38.42;;
62861;SDS011;48953;53.110;5.592;2023-12-04T02:47:29;110.18;;;39.03;;
62861;SDS011;48953;53.110;5.592;2023-12-04T02:49:55;107.90;;;39.08;;
62861;SDS011;48953;53.110;5.592;2023-12-04T02:52:21;101.38;;;37.10;;
62861;SDS011;48953;53.110;5.592;2023-12-04T02:54:47;107.32;;;39.00;;
62861;SDS011;48953;53.110;5.592;2023-12-04T02:57:13;105.13;;;39.65;;
62861;SDS011;48953;53.110;5.592;2023-12-04T02:59:39;106.03;;;39.60;;
62861;SDS011;48953;53.110;5.592;2023-12-04T03:02:05;94.85;;;38.85;;
62861;SDS011;48953;53.110;5.592;2023-12-04T03:04:31;107.70;;;40.63;;
62861;SDS011;48953;53.110;5.592;2023-12-04T03:06:57;107.40;;;38.00;;
62861;SDS011;48953;53.110;5.592;2023-12-04T03:09:23;110.55;;;39.75;;
62861;SDS011;48953;53.110;5.592;2023-12-04T03:11:49;111.88;;;40.45;;
62861;SDS011;48953;53.110;5.592;2023-12-04T03:14:15;111.07;;;40.25;;
62861;SDS011;48953;53.110;5.592;2023-12-04T03:16:41;111.25;;;40.63;;
62861;SDS011;48953;53.110;5.592;2023-12-04T03:19:07;108.63;;;38.35;;
62861;SDS011;48953;53.110;5.592;2023-12-04T03:21:33;109.75;;;39.15;;
62861;SDS011;48953;53.110;5.592;2023-12-04T03:23:59;107.78;;;39.75;;
62861;SDS011;48953;53.110;5.592;2023-12-04T03:26:25;106.72;;;38.88;;
62861;SDS011;48953;53.110;5.592;2023-12-04T03:28:51;113.30;;;37.97;;
62861;SDS011;48953;53.110;5.592;2023-12-04T03:31:17;115.40;;;39.88;;
62861;SDS011;48953;53.110;5.592;2023-12-04T03:33:43;112.43;;;40.10;;
62861;SDS011;48953;53.110;5.592;2023-12-04T03:36:09;110.57;;;39.33;;
62861;SDS011;48953;53.110;5.592;2023-12-04T03:38:35;104.90;;;39.13;;
62861;SDS011;48953;53.110;5.592;2023-12-04T03:41:01;111.78;;;39.63;;
62861;SDS011;48953;53.110;5.592;2023-12-04T03:43:27;105.93;;;38.50;;
62861;SDS011;48953;53.110;5.592;2023-12-04T03:45:53;109.13;;;39.30;;
62861;SDS011;48953;53.110;5.592;2023-12-04T03:48:19;113.00;;;38.92;;
62861;SDS011;48953;53.110;5.592;2023-12-04T03:50:45;106.03;;;39.72;;
62861;SDS011;48953;53.110;5.592;2023-12-04T03:53:11;105.50;;;39.95;;
62861;SDS011;48953;53.110;5.592;2023-12-04T03:55:37;108.32;;;38.25;;
62861;SDS011;48953;53.110;5.592;2023-12-04T03:58:03;101.88;;;36.58;;
62861;SDS011;48953;53.110;5.592;2023-12-04T04:00:30;101.18;;;36.33;;
62861;SDS011;48953;53.110;5.592;2023-12-04T04:02:56;99.22;;;35.97;;
62861;SDS011;48953;53.110;5.592;2023-12-04T04:05:22;96.60;;;35.47;;
62861;SDS011;48953;53.110;5.592;2023-12-04T04:07:48;92.07;;;34.70;;
62861;SDS011;48953;53.110;5.592;2023-12-04T04:10:14;100.85;;;36.72;;
62861;SDS011;48953;53.110;5.592;2023-12-04T04:12:40;99.20;;;36.75;;
62861;SDS011;48953;53.110;5.592;2023-12-04T04:15:06;92.78;;;34.80;;
62861;SDS011;48953;53.110;5.592;2023-12-04T04:17:32;95.15;;;35.17;;
62861;SDS011;48953;53.110;5.592;2023-12-04T04:19:58;91.63;;;35.47;;
62861;SDS011;48953;53.110;5.592;2023-12-04T04:22:25;94.90;;;35.40;;
62861;SDS011;48953;53.110;5.592;2023-12-04T04:24:51;83.15;;;32.92;;
62861;SDS011;48953;53.110;5.592;2023-12-04T04:27:17;89.75;;;34.75;;
62861;SDS011;48953;53.110;5.592;2023-12-04T04:29:43;91.57;;;33.70;;
62861;SDS011;48953;53.110;5.592;2023-12-04T04:32:09;91.72;;;33.22;;
62861;SDS011;48953;53.110;5.592;2023-12-04T04:34:35;128.18;;;35.53;;
62861;SDS011;48953;53.110;5.592;2023-12-04T04:37:01;85.47;;;34.85;;
62861;SDS011;48953;53.110;5.592;2023-12-04T04:39:27;78.20;;;31.80;;
62861;SDS011;48953;53.110;5.592;2023-12-04T04:41:53;85.65;;;32.85;;
62861;SDS011;48953;53.110;5.592;2023-12-04T04:44:19;84.22;;;32.75;;
62861;SDS011;48953;53.110;5.592;2023-12-04T04:46:45;76.95;;;29.77;;
62861;SDS011;48953;53.110;5.592;2023-12-04T04:49:11;90.22;;;32.83;;
62861;SDS011;48953;53.110;5.592;2023-12-04T04:51:37;75.03;;;30.25;;
62861;SDS011;48953;53.110;5.592;2023-12-04T04:54:03;80.68;;;33.20;;
62861;SDS011;48953;53.110;5.592;2023-12-04T04:56:29;69.63;;;30.13;;
62861;SDS011;48953;53.110;5.592;2023-12-04T04:58:55;76.82;;;30.48;;
62861;SDS011;48953;53.110;5.592;2023-12-04T05:01:21;71.70;;;29.83;;
62861;SDS011;48953;53.110;5.592;2023-12-04T05:03:48;75.97;;;31.02;;
62861;SDS011;48953;53.110;5.592;2023-12-04T05:06:14;67.10;;;29.85;;
62861;SDS011;48953;53.110;5.592;2023-12-04T05:08:40;74.22;;;29.10;;
62861;SDS011;48953;53.110;5.592;2023-12-04T05:11:06;57.85;;;26.77;;
62861;SDS011;48953;53.110;5.592;2023-12-04T05:13:32;64.43;;;28.73;;
62861;SDS011;48953;53.110;5.592;2023-12-04T05:15:58;65.07;;;29.55;;
62861;SDS011;48953;53.110;5.592;2023-12-04T05:18:24;66.63;;;28.42;;
62861;SDS011;48953;53.110;5.592;2023-12-04T05:20:50;63.95;;;29.15;;
62861;SDS011;48953;53.110;5.592;2023-12-04T05:23:16;63.80;;;29.35;;
62861;SDS011;48953;53.110;5.592;2023-12-04T05:25:42;64.50;;;29.70;;
62861;SDS011;48953;53.110;5.592;2023-12-04T05:28:08;58.50;;;28.33;;
62861;SDS011;48953;53.110;5.592;2023-12-04T05:30:34;62.90;;;29.88;;
62861;SDS011;48953;53.110;5.592;2023-12-04T05:33:00;64.00;;;30.00;;
62861;SDS011;48953;53.110;5.592;2023-12-04T05:35:27;74.05;;;34.50;;
62861;SDS011;48953;53.110;5.592;2023-12-04T05:37:53;71.78;;;31.90;;
62861;SDS011;48953;53.110;5.592;2023-12-04T05:40:19;60.88;;;28.48;;
62861;SDS011;48953;53.110;5.592;2023-12-04T05:42:45;58.80;;;28.85;;
62861;SDS011;48953;53.110;5.592;2023-12-04T05:45:11;61.20;;;29.67;;
62861;SDS011;48953;53.110;5.592;2023-12-04T05:47:37;48.70;;;26.33;;
62861;SDS011;48953;53.110;5.592;2023-12-04T05:50:03;60.92;;;28.77;;
62861;SDS011;48953;53.110;5.592;2023-12-04T05:52:29;52.63;;;26.35;;
62861;SDS011;48953;53.110;5.592;2023-12-04T05:54:55;52.42;;;27.60;;
62861;SDS011;48953;53.110;5.592;2023-12-04T05:57:21;50.05;;;26.33;;
62861;SDS011;48953;53.110;5.592;2023-12-04T05:59:47;50.35;;;25.60;;
62861;SDS011;48953;53.110;5.592;2023-12-04T06:02:13;47.42;;;25.08;;
62861;SDS011;48953;53.110;5.592;2023-12-04T06:04:40;51.75;;;26.55;;
62861;SDS011;48953;53.110;5.592;2023-12-04T06:07:06;48.35;;;25.08;;
62861;SDS011;48953;53.110;5.592;2023-12-04T06:09:32;47.30;;;24.08;;
62861;SDS011;48953;53.110;5.592;2023-12-04T06:12:01;47.45;;;24.63;;
62861;SDS011;48953;53.110;5.592;2023-12-04T06:14:32;52.72;;;25.13;;
62861;SDS011;48953;53.110;5.592;2023-12-04T06:16:58;48.53;;;24.38;;
62861;SDS011;48953;53.110;5.592;2023-12-04T06:19:24;45.05;;;24.70;;
62861;SDS011;48953;53.110;5.592;2023-12-04T06:21:50;52.80;;;25.80;;
62861;SDS011;48953;53.110;5.592;2023-12-04T06:24:17;47.72;;;24.10;;
62861;SDS011;48953;53.110;5.592;2023-12-04T06:26:44;46.03;;;24.25;;
62861;SDS011;48953;53.110;5.592;2023-12-04T06:29:14;45.65;;;23.30;;
62861;SDS011;48953;53.110;5.592;2023-12-04T06:31:41;43.10;;;23.65;;
62861;SDS011;48953;53.110;5.592;2023-12-04T06:34:07;41.70;;;23.35;;
62861;SDS011;48953;53.110;5.592;2023-12-04T06:36:35;39.25;;;21.60;;
62861;SDS011;48953;53.110;5.592;2023-12-04T06:39:03;41.28;;;23.08;;
62861;SDS011;48953;53.110;5.592;2023-12-04T06:41:30;42.75;;;22.80;;
62861;SDS011;48953;53.110;5.592;2023-12-04T06:43:56;39.22;;;22.60;;
62861;SDS011;48953;53.110;5.592;2023-12-04T06:46:22;42.42;;;23.05;;
62861;SDS011;48953;53.110;5.592;2023-12-04T06:48:49;42.55;;;23.65;;
62861;SDS011;48953;53.110;5.592;2023-12-04T06:51:17;42.05;;;23.02;;
62861;SDS011;48953;53.110;5.592;2023-12-04T06:53:43;42.58;;;23.05;;
62861;SDS011;48953;53.110;5.592;2023-12-04T06:56:09;40.47;;;21.48;;
62861;SDS011;48953;53.110;5.592;2023-12-04T06:58:35;38.97;;;22.30;;
62861;SDS011;48953;53.110;5.592;2023-12-04T07:01:01;37.25;;;21.85;;
62861;SDS011;48953;53.110;5.592;2023-12-04T07:03:27;38.33;;;20.67;;
62861;SDS011;48953;53.110;5.592;2023-12-04T07:05:54;38.72;;;21.48;;
62861;SDS011;48953;53.110;5.592;2023-12-04T07:08:20;40.08;;;21.60;;
62861;SDS011;48953;53.110;5.592;2023-12-04T07:10:46;36.90;;;20.63;;
62861;SDS011;48953;53.110;5.592;2023-12-04T07:13:12;35.75;;;20.63;;
62861;SDS011;48953;53.110;5.592;2023-12-04T07:15:38;36.47;;;20.98;;
62861;SDS011;48953;53.110;5.592;2023-12-04T07:18:04;39.03;;;21.40;;
62861;SDS011;48953;53.110;5.592;2023-12-04T07:20:30;36.10;;;20.42;;
62861;SDS011;48953;53.110;5.592;2023-12-04T07:22:56;36.25;;;21.23;;
62861;SDS011;48953;53.110;5.592;2023-12-04T07:25:23;39.50;;;21.60;;
62861;SDS011;48953;53.110;5.592;2023-12-04T07:27:49;33.33;;;18.80;;
62861;SDS011;48953;53.110;5.592;2023-12-04T07:30:15;33.08;;;19.92;;
62861;SDS011;48953;53.110;5.592;2023-12-04T07:32:41;33.00;;;20.17;;
62861;SDS011;48953;53.110;5.592;2023-12-04T07:35:07;30.52;;;18.63;;
62861;SDS011;48953;53.110;5.592;2023-12-04T07:37:33;33.03;;;18.13;;
62861;SDS011;48953;53.110;5.592;2023-12-04T07:39:59;31.25;;;19.10;;
62861;SDS011;48953;53.110;5.592;2023-12-04T07:42:26;30.23;;;17.15;;
62861;SDS011;48953;53.110;5.592;2023-12-04T07:44:52;30.30;;;17.70;;
62861;SDS011;48953;53.110;5.592;2023-12-04T07:47:18;27.83;;;17.52;;
62861;SDS011;48953;53.110;5.592;2023-12-04T07:49:44;31.10;;;18.05;;
62861;SDS011;48953;53.110;5.592;2023-12-04T07:52:10;32.80;;;19.48;;
62861;SDS011;48953;53.110;5.592;2023-12-04T07:54:36;27.80;;;17.10;;
62861;SDS011;48953;53.110;5.592;2023-12-04T07:57:03;26.08;;;16.80;;
62861;SDS011;48953;53.110;5.592;2023-12-04T07:59:29;29.77;;;18.73;;
62861;SDS011;48953;53.110;5.592;2023-12-04T08:01:55;29.02;;;17.80;;
62861;SDS011;48953;53.110;5.592;2023-12-04T08:04:21;29.27;;;18.08;;
62861;SDS011;48953;53.110;5.592;2023-12-04T08:06:48;27.60;;;17.08;;
62861;SDS011;48953;53.110;5.592;2023-12-04T08:09:15;25.80;;;16.55;;
62861;SDS011;48953;53.110;5.592;2023-12-04T08:11:41;26.08;;;16.17;;
62861;SDS011;48953;53.110;5.592;2023-12-04T08:14:07;24.30;;;16.23;;
62861;SDS011;48953;53.110;5.592;2023-12-04T08:16:33;22.38;;;16.25;;
62861;SDS011;48953;53.110;5.592;2023-12-04T08:18:59;23.73;;;15.55;;
62861;SDS011;48953;53.110;5.592;2023-12-04T08:21:25;23.45;;;15.43;;
62861;SDS011;48953;53.110;5.592;2023-12-04T08:23:51;21.52;;;15.10;;
62861;SDS011;48953;53.110;5.592;2023-12-04T08:26:22;24.10;;;14.73;;
62861;SDS011;48953;53.110;5.592;2023-12-04T08:28:49;21.60;;;14.45;;
62861;SDS011;48953;53.110;5.592;2023-12-04T08:31:15;20.38;;;13.77;;
62861;SDS011;48953;53.110;5.592;2023-12-04T08:33:41;24.48;;;15.23;;
62861;SDS011;48953;53.110;5.592;2023-12-04T08:36:08;21.40;;;14.13;;
62861;SDS011;48953;53.110;5.592;2023-12-04T08:38:34;21.38;;;14.00;;
62861;SDS011;48953;53.110;5.592;2023-12-04T08:41:00;21.13;;;13.20;;
62861;SDS011;48953;53.110;5.592;2023-12-04T08:43:26;19.90;;;12.98;;
62861;SDS011;48953;53.110;5.592;2023-12-04T08:45:53;20.23;;;13.60;;
62861;SDS011;48953;53.110;5.592;2023-12-04T08:48:19;20.00;;;13.02;;
62861;SDS011;48953;53.110;5.592;2023-12-04T08:50:46;21.55;;;13.57;;
62861;SDS011;48953;53.110;5.592;2023-12-04T08:53:13;20.80;;;13.25;;
62861;SDS011;48953;53.110;5.592;2023-12-04T08:55:39;20.30;;;12.95;;
62861;SDS011;48953;53.110;5.592;2023-12-04T08:58:05;20.95;;;13.73;;
62861;SDS011;48953;53.110;5.592;2023-12-04T09:00:32;19.27;;;12.27;;
62861;SDS011;48953;53.110;5.592;2023-12-04T09:02:58;18.83;;;12.50;;
62861;SDS011;48953;53.110;5.592;2023-12-04T09:05:24;17.95;;;12.32;;
62861;SDS011;48953;53.110;5.592;2023-12-04T09:07:50;18.15;;;12.40;;
62861;SDS011;48953;53.110;5.592;2023-12-04T09:10:16;21.45;;;12.75;;
62861;SDS011;48953;53.110;5.592;2023-12-04T09:12:42;19.73;;;12.80;;
62861;SDS011;48953;53.110;5.592;2023-12-04T09:15:08;19.02;;;12.77;;
62861;SDS011;48953;53.110;5.592;2023-12-04T09:17:34;20.35;;;11.57;;
62861;SDS011;48953;53.110;5.592;2023-12-04T09:20:00;18.00;;;11.95;;
62861;SDS011;48953;53.110;5.592;2023-12-04T09:22:26;18.38;;;11.40;;
62861;SDS011;48953;53.110;5.592;2023-12-04T09:24:53;18.58;;;12.45;;
62861;SDS011;48953;53.110;5.592;2023-12-04T09:27:19;16.58;;;11.70;;
62861;SDS011;48953;53.110;5.592;2023-12-04T09:29:46;16.65;;;11.98;;
62861;SDS011;48953;53.110;5.592;2023-12-04T09:32:12;17.95;;;11.80;;
62861;SDS011;48953;53.110;5.592;2023-12-04T09:34:38;16.63;;;11.07;;
62861;SDS011;48953;53.110;5.592;2023-12-04T09:37:04;15.82;;;11.43;;
62861;SDS011;48953;53.110;5.592;2023-12-04T09:39:30;17.35;;;11.75;;
62861;SDS011;48953;53.110;5.592;2023-12-04T09:41:56;16.90;;;10.73;;
62861;SDS011;48953;53.110;5.592;2023-12-04T09:44:23;16.50;;;10.77;;
62861;SDS011;48953;53.110;5.592;2023-12-04T09:46:50;16.58;;;11.55;;
62861;SDS011;48953;53.110;5.592;2023-12-04T09:49:17;16.55;;;10.93;;
62861;SDS011;48953;53.110;5.592;2023-12-04T09:51:43;14.60;;;10.40;;
62861;SDS011;48953;53.110;5.592;2023-12-04T09:54:09;15.93;;;10.82;;
62861;SDS011;48953;53.110;5.592;2023-12-04T09:56:37;15.02;;;10.45;;
62861;SDS011;48953;53.110;5.592;2023-12-04T09:59:04;16.05;;;10.90;;
62861;SDS011;48953;53.110;5.592;2023-12-04T10:01:31;17.42;;;11.45;;
62861;SDS011;48953;53.110;5.592;2023-12-04T10:03:58;15.07;;;10.80;;
62861;SDS011;48953;53.110;5.592;2023-12-04T10:06:27;14.02;;;10.05;;
62861;SDS011;48953;53.110;5.592;2023-12-04T10:08:56;18.05;;;10.13;;
62861;SDS011;48953;53.110;5.592;2023-12-04T10:11:25;16.00;;;9.95;;
62861;SDS011;48953;53.110;5.592;2023-12-04T10:13:52;15.48;;;10.30;;
62861;SDS011;48953;53.110;5.592;2023-12-04T10:16:34;13.50;;;10.45;;
62861;SDS011;48953;53.110;5.592;2023-12-04T10:21:43;15.00;;;10.07;;
62861;SDS011;48953;53.110;5.592;2023-12-04T10:24:09;12.40;;;8.90;;
62861;SDS011;48953;53.110;5.592;2023-12-04T10:26:35;15.48;;;9.88;;
62861;SDS011;48953;53.110;5.592;2023-12-04T10:29:02;14.20;;;9.75;;
62861;SDS011;48953;53.110;5.592;2023-12-04T10:31:32;15.98;;;9.55;;
62861;SDS011;48953;53.110;5.592;2023-12-04T10:33:59;16.55;;;9.02;;
62861;SDS011;48953;53.110;5.592;2023-12-04T10:36:25;13.60;;;8.13;;
62861;SDS011;48953;53.110;5.592;2023-12-04T10:38:58;12.60;;;8.90;;
62861;SDS011;48953;53.110;5.592;2023-12-04T10:41:33;13.32;;;9.20;;
62861;SDS011;48953;53.110;5.592;2023-12-04T10:43:59;13.38;;;9.30;;
62861;SDS011;48953;53.110;5.592;2023-12-04T10:46:26;13.63;;;8.98;;
62861;SDS011;48953;53.110;5.592;2023-12-04T10:48:52;13.23;;;9.00;;
62861;SDS011;48953;53.110;5.592;2023-12-04T10:51:19;11.85;;;8.27;;
62861;SDS011;48953;53.110;5.592;2023-12-04T10:53:48;11.93;;;8.25;;
62861;SDS011;48953;53.110;5.592;2023-12-04T10:56:18;13.55;;;8.82;;
62861;SDS011;48953;53.110;5.592;2023-12-04T11:01:11;13.15;;;8.60;;
62861;SDS011;48953;53.110;5.592;2023-12-04T11:03:43;11.82;;;8.05;;
62861;SDS011;48953;53.110;5.592;2023-12-04T11:06:10;12.20;;;8.70;;
62861;SDS011;48953;53.110;5.592;2023-12-04T11:08:41;14.00;;;8.38;;
62861;SDS011;48953;53.110;5.592;2023-12-04T11:11:10;13.10;;;8.15;;
62861;SDS011;48953;53.110;5.592;2023-12-04T11:13:39;12.35;;;8.38;;
62861;SDS011;48953;53.110;5.592;2023-12-04T11:16:16;12.20;;;7.80;;
62861;SDS011;48953;53.110;5.592;2023-12-04T11:18:44;10.55;;;7.43;;
62861;SDS011;48953;53.110;5.592;2023-12-04T11:21:13;16.15;;;7.95;;
62861;SDS011;48953;53.110;5.592;2023-12-04T11:23:41;11.05;;;7.60;;
62861;SDS011;48953;53.110;5.592;2023-12-04T11:26:07;12.23;;;7.25;;
62861;SDS011;48953;53.110;5.592;2023-12-04T11:28:34;12.30;;;7.85;;
62861;SDS011;48953;53.110;5.592;2023-12-04T11:31:03;11.50;;;7.20;;
62861;SDS011;48953;53.110;5.592;2023-12-04T11:33:36;12.38;;;7.60;;
62861;SDS011;48953;53.110;5.592;2023-12-04T11:36:10;11.63;;;7.38;;
62861;SDS011;48953;53.110;5.592;2023-12-04T11:38:37;12.50;;;7.32;;
62861;SDS011;48953;53.110;5.592;2023-12-04T11:41:19;11.45;;;7.07;;
62861;SDS011;48953;53.110;5.592;2023-12-04T11:43:46;12.63;;;8.15;;
62861;SDS011;48953;53.110;5.592;2023-12-04T11:46:13;12.65;;;7.55;;
62861;SDS011;48953;53.110;5.592;2023-12-04T11:48:39;10.25;;;7.20;;
62861;SDS011;48953;53.110;5.592;2023-12-04T11:51:06;12.18;;;7.55;;
62861;SDS011;48953;53.110;5.592;2023-12-04T11:53:32;13.90;;;7.75;;
62861;SDS011;48953;53.110;5.592;2023-12-04T11:55:58;12.10;;;7.43;;
62861;SDS011;48953;53.110;5.592;2023-12-04T11:58:24;13.43;;;8.13;;
62861;SDS011;48953;53.110;5.592;2023-12-04T12:00:51;11.70;;;6.88;;
62861;SDS011;48953;53.110;5.592;2023-12-04T12:03:20;12.30;;;7.55;;
62861;SDS011;48953;53.110;5.592;2023-12-04T12:05:46;12.85;;;7.75;;
62861;SDS011;48953;53.110;5.592;2023-12-04T12:08:14;12.40;;;6.93;;
62861;SDS011;48953;53.110;5.592;2023-12-04T12:10:42;13.38;;;8.43;;
62861;SDS011;48953;53.110;5.592;2023-12-04T12:13:09;13.25;;;7.90;;
62861;SDS011;48953;53.110;5.592;2023-12-04T12:15:36;11.07;;;7.50;;
62861;SDS011;48953;53.110;5.592;2023-12-04T12:18:02;11.88;;;8.23;;
62861;SDS011;48953;53.110;5.592;2023-12-04T12:20:29;13.13;;;7.95;;
62861;SDS011;48953;53.110;5.592;2023-12-04T12:22:55;12.68;;;8.68;;
62861;SDS011;48953;53.110;5.592;2023-12-04T12:25:21;12.80;;;7.80;;
62861;SDS011;48953;53.110;5.592;2023-12-04T12:27:47;11.23;;;7.10;;
62861;SDS011;48953;53.110;5.592;2023-12-04T12:30:13;13.10;;;8.13;;
62861;SDS011;48953;53.110;5.592;2023-12-04T12:32:40;12.05;;;7.65;;
62861;SDS011;48953;53.110;5.592;2023-12-04T12:35:06;12.48;;;8.18;;
62861;SDS011;48953;53.110;5.592;2023-12-04T12:37:37;12.05;;;8.05;;
62861;SDS011;48953;53.110;5.592;2023-12-04T12:40:04;12.43;;;8.43;;
62861;SDS011;48953;53.110;5.592;2023-12-04T12:42:30;12.27;;;8.05;;
62861;SDS011;48953;53.110;5.592;2023-12-04T12:44:59;12.77;;;8.65;;
62861;SDS011;48953;53.110;5.592;2023-12-04T12:47:26;13.45;;;8.48;;
62861;SDS011;48953;53.110;5.592;2023-12-04T12:49:52;13.85;;;8.45;;
62861;SDS011;48953;53.110;5.592;2023-12-04T12:52:19;14.05;;;8.43;;
62861;SDS011;48953;53.110;5.592;2023-12-04T12:54:45;14.13;;;8.25;;
62861;SDS011;48953;53.110;5.592;2023-12-04T12:57:11;12.30;;;8.13;;
62861;SDS011;48953;53.110;5.592;2023-12-04T12:59:38;13.38;;;8.80;;
62861;SDS011;48953;53.110;5.592;2023-12-04T13:02:04;13.40;;;8.18;;
62861;SDS011;48953;53.110;5.592;2023-12-04T13:07:00;11.25;;;7.72;;
62861;SDS011;48953;53.110;5.592;2023-12-04T13:09:28;13.85;;;8.80;;
62861;SDS011;48953;53.110;5.592;2023-12-04T13:11:54;11.85;;;7.68;;
62861;SDS011;48953;53.110;5.592;2023-12-04T13:14:20;11.63;;;8.32;;
62861;SDS011;48953;53.110;5.592;2023-12-04T13:16:46;11.18;;;7.28;;
62861;SDS011;48953;53.110;5.592;2023-12-04T13:19:12;12.23;;;7.70;;
62861;SDS011;48953;53.110;5.592;2023-12-04T13:21:38;12.40;;;7.68;;
62861;SDS011;48953;53.110;5.592;2023-12-04T13:24:04;10.45;;;6.68;;
62861;SDS011;48953;53.110;5.592;2023-12-04T13:26:34;11.83;;;7.67;;
62861;SDS011;48953;53.110;5.592;2023-12-04T13:29:00;12.02;;;8.40;;
62861;SDS011;48953;53.110;5.592;2023-12-04T13:31:26;13.05;;;8.52;;
62861;SDS011;48953;53.110;5.592;2023-12-04T13:33:53;11.85;;;7.65;;
62861;SDS011;48953;53.110;5.592;2023-12-04T13:36:19;12.32;;;7.43;;
62861;SDS011;48953;53.110;5.592;2023-12-04T13:38:45;12.32;;;8.18;;
62861;SDS011;48953;53.110;5.592;2023-12-04T13:41:11;12.75;;;7.40;;
62861;SDS011;48953;53.110;5.592;2023-12-04T13:43:56;10.40;;;7.95;;
62861;SDS011;48953;53.110;5.592;2023-12-04T13:46:24;12.15;;;7.93;;
62861;SDS011;48953;53.110;5.592;2023-12-04T13:48:51;12.50;;;8.18;;
62861;SDS011;48953;53.110;5.592;2023-12-04T13:51:17;9.63;;;6.68;;
62861;SDS011;48953;53.110;5.592;2023-12-04T13:53:45;11.93;;;7.55;;
62861;SDS011;48953;53.110;5.592;2023-12-04T13:56:14;14.23;;;7.72;;
62861;SDS011;48953;53.110;5.592;2023-12-04T13:58:49;15.15;;;8.40;;
62861;SDS011;48953;53.110;5.592;2023-12-04T14:01:24;11.38;;;8.05;;
62861;SDS011;48953;53.110;5.592;2023-12-04T14:03:53;18.48;;;9.07;;
62861;SDS011;48953;53.110;5.592;2023-12-04T14:06:21;15.70;;;9.20;;
62861;SDS011;48953;53.110;5.592;2023-12-04T14:08:47;14.55;;;7.65;;
62861;SDS011;48953;53.110;5.592;2023-12-04T14:11:13;12.93;;;6.65;;
62861;SDS011;48953;53.110;5.592;2023-12-04T14:13:39;11.48;;;7.38;;
62861;SDS011;48953;53.110;5.592;2023-12-04T14:16:06;9.95;;;6.72;;
62861;SDS011;48953;53.110;5.592;2023-12-04T14:18:32;12.93;;;8.02;;
62861;SDS011;48953;53.110;5.592;2023-12-04T14:20:59;11.82;;;7.63;;
62861;SDS011;48953;53.110;5.592;2023-12-04T14:23:25;11.77;;;6.97;;
62861;SDS011;48953;53.110;5.592;2023-12-04T14:25:51;11.57;;;7.18;;
62861;SDS011;48953;53.110;5.592;2023-12-04T14:28:17;11.30;;;7.25;;